< < Back
Terminal Aerodrome Forecast


Current Version              Previous Versions:   1  2  3  4  5  6  7  8  9  

Terminal Aerodrome Forecast

672
FTUS42 KFFC 301120
TAFCSG
TAF
KCSG 301120Z 3012/3112 30013G23KT P6SM SKC
     FM301600 32012G20KT P6SM SKC
     FM310000 32004KT P6SM SKC=

Latest METAR

490
SAUS70 KWBC 311000
MTRCSG
METAR KCSG 310951Z AUTO 00000KT 10SM CLR 01/M07 A3033 RMK AO2 SLP271
T00111067 $


USA.gov is the U.S. government's official web portal to all federal, state and local government web resources and services.